createdAt,value
2023-04-10T00:02:00.579Z,12.02
2023-04-10T00:04:28.522Z,12.04
2023-04-10T00:06:55.488Z,11.88
2023-04-10T00:09:22.130Z,11.84
2023-04-10T00:11:48.702Z,11.88
2023-04-10T00:14:15.325Z,11.85
2023-04-10T00:16:41.850Z,11.78
2023-04-10T00:19:08.642Z,11.82
2023-04-10T00:21:35.134Z,11.73
2023-04-10T00:24:01.691Z,11.64
2023-04-10T00:26:28.217Z,11.64
2023-04-10T00:28:54.686Z,11.63
2023-04-10T00:31:21.204Z,11.56
2023-04-10T00:33:47.684Z,11.58
2023-04-10T00:36:14.239Z,11.57
2023-04-10T00:38:40.713Z,11.51
2023-04-10T00:41:07.460Z,11.41
2023-04-10T00:43:33.966Z,11.32
2023-04-10T00:46:00.791Z,11.32
2023-04-10T00:48:27.662Z,11.30
2023-04-10T00:50:54.310Z,11.25
2023-04-10T00:53:22.069Z,11.28
2023-04-10T00:55:49.993Z,11.13
2023-04-10T00:58:16.692Z,11.00
2023-04-10T01:00:43.250Z,10.98
2023-04-10T01:03:12.737Z,10.96
2023-04-10T01:05:46.303Z,10.95
2023-04-10T01:08:22.839Z,10.98
2023-04-10T01:10:58.612Z,10.90
2023-04-10T01:13:32.979Z,10.85
2023-04-10T01:16:08.399Z,10.81
2023-04-10T01:18:54.008Z,10.72
2023-04-10T01:21:22.592Z,10.64
2023-04-10T01:24:21.655Z,10.64
2023-04-10T01:26:53.727Z,10.69
2023-04-10T01:29:21.253Z,10.72
2023-04-10T01:32:01.743Z,10.61
2023-04-10T01:34:36.071Z,10.57
2023-04-10T01:37:08.546Z,10.53
2023-04-10T01:39:39.367Z,10.50
2023-04-10T01:42:08.882Z,10.53
2023-04-10T01:44:38.077Z,10.57
2023-04-10T01:47:07.226Z,10.55
2023-04-10T01:49:35.383Z,10.53
2023-04-10T01:52:02.394Z,10.56
2023-04-10T01:54:31.591Z,10.57
2023-04-10T01:56:59.852Z,10.65
2023-04-10T01:59:26.821Z,10.59
2023-04-10T02:02:01.391Z,10.55
2023-04-10T02:04:28.288Z,10.54
2023-04-10T02:07:05.089Z,10.54
2023-04-10T02:09:50.276Z,10.59
2023-04-10T02:12:22.499Z,10.63
2023-04-10T02:14:50.643Z,10.56
2023-04-10T02:17:23.341Z,10.52
2023-04-10T02:19:53.182Z,10.45
2023-04-10T02:22:20.508Z,10.46
2023-04-10T02:24:47.335Z,10.40
2023-04-10T02:27:13.856Z,10.39
2023-04-10T02:29:40.452Z,10.37
2023-04-10T02:32:07.077Z,10.44
2023-04-10T02:34:33.536Z,10.45
2023-04-10T02:37:00.006Z,10.36
2023-04-10T02:39:26.517Z,10.35
2023-04-10T02:41:53.020Z,10.32
2023-04-10T02:44:19.530Z,10.30
2023-04-10T02:46:47.141Z,10.26
2023-04-10T02:49:14.020Z,10.25
2023-04-10T02:51:40.476Z,10.26
2023-04-10T02:54:06.897Z,10.26
2023-04-10T02:56:34.957Z,10.23
2023-04-10T02:59:01.595Z,10.21
2023-04-10T03:01:28.127Z,10.14
2023-04-10T03:03:54.928Z,10.09
2023-04-10T03:06:23.596Z,10.11
2023-04-10T03:08:50.133Z,10.08
2023-04-10T03:11:16.653Z,10.02
2023-04-10T03:13:43.104Z,10.01
2023-04-10T03:16:09.699Z,10.02
2023-04-10T03:18:36.563Z,10.02
2023-04-10T03:21:03.118Z,9.99
2023-04-10T03:23:29.553Z,9.94
2023-04-10T03:25:56.241Z,9.88
2023-04-10T03:28:22.819Z,9.84
2023-04-10T03:30:52.077Z,9.83
2023-04-10T03:33:18.587Z,9.83
2023-04-10T03:35:48.501Z,9.84
2023-04-10T03:38:15.042Z,9.90
2023-04-10T03:40:41.527Z,9.97
2023-04-10T03:43:08.107Z,10.04
2023-04-10T03:45:34.650Z,10.00
2023-04-10T03:48:01.173Z,9.98
2023-04-10T03:50:28.021Z,9.95
2023-04-10T03:52:54.563Z,9.85
2023-04-10T03:55:21.334Z,9.84
2023-04-10T03:57:48.653Z,9.90
2023-04-10T04:00:16.677Z,9.80
2023-04-10T04:02:43.463Z,9.79
2023-04-10T04:05:10.385Z,9.74
2023-04-10T04:07:36.933Z,9.78
2023-04-10T04:10:03.743Z,9.82
2023-04-10T04:12:30.381Z,9.90
2023-04-10T04:14:57.121Z,9.88
2023-04-10T04:17:23.632Z,9.86
2023-04-10T04:19:50.199Z,9.81
2023-04-10T04:22:16.898Z,9.82
2023-04-10T04:24:43.350Z,9.83
2023-04-10T04:27:09.806Z,9.86
2023-04-10T04:29:36.243Z,9.90
2023-04-10T04:32:02.725Z,9.89
2023-04-10T04:34:29.251Z,9.85
2023-04-10T04:36:55.747Z,9.81
2023-04-10T04:41:49.850Z,9.93
2023-04-10T04:44:16.321Z,9.94
2023-04-10T04:46:44.616Z,9.91
2023-04-10T04:49:11.496Z,9.91
2023-04-10T04:51:38.204Z,9.89
2023-04-10T04:54:05.274Z,9.86
2023-04-10T04:56:31.772Z,9.90
2023-04-10T04:58:58.245Z,9.92
2023-04-10T05:01:25.076Z,9.92
2023-04-10T05:03:51.679Z,9.84
2023-04-10T05:06:18.740Z,9.76
2023-04-10T05:08:45.329Z,9.81
2023-04-10T05:11:11.796Z,9.81
2023-04-10T05:13:38.285Z,9.82
2023-04-10T05:16:05.060Z,9.82
2023-04-10T05:18:31.698Z,9.88
2023-04-10T05:20:58.231Z,9.88
2023-04-10T05:23:24.685Z,9.92
2023-04-10T05:25:51.261Z,9.97
2023-04-10T05:28:17.747Z,10.02
2023-04-10T05:30:44.797Z,9.93
2023-04-10T05:33:11.362Z,9.93
2023-04-10T05:35:37.980Z,9.96
2023-04-10T05:38:04.566Z,10.03
2023-04-10T05:40:31.261Z,10.01
2023-04-10T05:42:58.928Z,10.12
2023-04-10T05:45:25.571Z,10.16
2023-04-10T05:47:52.037Z,10.19
2023-04-10T05:50:18.568Z,10.25
2023-04-10T05:52:46.664Z,10.27
2023-04-10T05:55:13.115Z,10.32
2023-04-10T05:57:39.819Z,10.34
2023-04-10T06:00:06.955Z,10.33
2023-04-10T06:02:33.694Z,10.31
2023-04-10T06:05:00.711Z,10.31
2023-04-10T06:07:27.795Z,10.37
2023-04-10T06:09:54.285Z,10.44
2023-04-10T06:12:20.810Z,10.43
2023-04-10T06:14:48.041Z,10.50
2023-04-10T06:17:14.490Z,10.56
2023-04-10T06:19:41.027Z,10.56
2023-04-10T06:22:07.465Z,10.61
2023-04-10T06:24:33.915Z,10.68
2023-04-10T06:27:00.882Z,10.74
2023-04-10T06:29:27.598Z,10.80
2023-04-10T06:31:54.167Z,10.77
2023-04-10T06:34:21.009Z,10.83
2023-04-10T06:36:47.486Z,10.91
2023-04-10T06:39:13.950Z,10.95
2023-04-10T06:41:40.476Z,10.95
2023-04-10T06:44:06.971Z,11.00
2023-04-10T06:46:33.586Z,11.05
2023-04-10T06:49:00.153Z,11.07
2023-04-10T06:51:27.755Z,11.10
2023-04-10T06:53:54.247Z,11.16
2023-04-10T06:56:21.083Z,11.17
2023-04-10T06:58:47.561Z,11.26
2023-04-10T07:01:14.216Z,11.29
2023-04-10T07:03:40.822Z,11.30
2023-04-10T07:06:08.394Z,11.28
2023-04-10T07:08:34.836Z,11.28
2023-04-10T07:11:01.347Z,11.33
2023-04-10T07:13:28.195Z,11.42
2023-04-10T07:15:54.799Z,11.50
2023-04-10T07:18:21.324Z,11.58
2023-04-10T07:20:48.537Z,11.64
2023-04-10T07:23:15.338Z,11.67
2023-04-10T07:25:42.702Z,11.71
2023-04-10T07:28:09.234Z,11.77
2023-04-10T07:30:35.835Z,11.88
2023-04-10T07:33:02.468Z,11.95
2023-04-10T07:35:29.100Z,12.02
2023-04-10T07:37:55.644Z,12.07
2023-04-10T07:40:22.104Z,12.11
2023-04-10T07:42:48.635Z,12.27
2023-04-10T07:45:15.159Z,12.39
2023-04-10T07:47:41.875Z,12.55
2023-04-10T07:50:08.868Z,12.72
2023-04-10T07:52:35.389Z,12.76
2023-04-10T07:55:03.448Z,12.72
2023-04-10T07:57:30.490Z,12.80
2023-04-10T07:59:57.135Z,12.76
2023-04-10T08:02:23.828Z,12.77
2023-04-10T08:04:50.649Z,12.82
2023-04-10T08:07:18.906Z,12.83
2023-04-10T08:09:45.351Z,12.81
2023-04-10T08:12:11.779Z,12.87
2023-04-10T08:14:38.262Z,12.94
2023-04-10T08:17:04.839Z,13.00
2023-04-10T08:19:31.323Z,13.04
2023-04-10T08:21:57.782Z,12.97
2023-04-10T08:24:24.376Z,13.01
2023-04-10T08:26:50.899Z,13.16
2023-04-10T08:29:17.382Z,13.27
2023-04-10T08:31:43.890Z,13.36
2023-04-10T08:34:10.577Z,13.42
2023-04-10T08:36:37.136Z,13.38
2023-04-10T08:39:03.615Z,13.42
2023-04-10T08:41:30.552Z,13.52
2023-04-10T08:43:57.500Z,13.51
2023-04-10T08:46:27.741Z,13.55
2023-04-10T08:49:02.102Z,13.59
2023-04-10T08:51:42.241Z,13.46
2023-04-10T08:54:17.539Z,13.47
2023-04-10T08:56:49.708Z,13.51
2023-04-10T08:59:16.472Z,13.53
2023-04-10T09:01:43.176Z,13.54
2023-04-10T09:04:12.214Z,13.62
2023-04-10T09:06:39.250Z,13.69
2023-04-10T09:09:09.583Z,13.68
2023-04-10T09:11:57.070Z,13.79
2023-04-10T09:14:32.149Z,13.74
2023-04-10T09:17:18.733Z,13.66
2023-04-10T09:19:47.741Z,13.68
2023-04-10T09:22:14.964Z,13.66
2023-04-10T09:24:43.798Z,13.66
2023-04-10T09:27:11.187Z,13.71
2023-04-10T09:29:45.857Z,13.82
2023-04-10T09:32:12.675Z,13.93
2023-04-10T09:34:57.228Z,14.07
2023-04-10T09:37:31.579Z,14.07
2023-04-10T09:39:58.112Z,14.12
2023-04-10T09:42:37.100Z,14.18
2023-04-10T09:45:05.223Z,14.20
2023-04-10T09:47:33.162Z,14.22
2023-04-10T09:50:01.212Z,14.23
2023-04-10T09:52:29.787Z,14.29
2023-04-10T09:55:07.641Z,14.41
2023-04-10T09:57:35.389Z,14.47
2023-04-10T10:00:05.184Z,14.55
2023-04-10T10:02:37.254Z,14.61
2023-04-10T10:05:05.430Z,14.62
2023-04-10T10:07:32.213Z,14.73
2023-04-10T10:10:00.616Z,14.87
2023-04-10T10:12:34.171Z,14.85
2023-04-10T10:15:28.830Z,14.84
2023-04-10T10:18:04.089Z,14.87
2023-04-10T10:20:32.863Z,14.95
2023-04-10T10:23:03.111Z,15.06
2023-04-10T10:25:31.531Z,15.15
2023-04-10T10:28:00.572Z,15.18
2023-04-10T10:30:30.378Z,15.26
2023-04-10T10:32:59.594Z,15.43
2023-04-10T10:35:29.607Z,15.55
2023-04-10T10:37:59.324Z,15.69
2023-04-10T10:40:32.791Z,15.70
2023-04-10T10:43:16.588Z,15.69
2023-04-10T10:45:56.393Z,15.70
2023-04-10T10:48:22.940Z,15.72
2023-04-10T10:51:02.222Z,15.70
2023-04-10T10:53:43.575Z,15.83
2023-04-10T10:56:19.267Z,15.85
2023-04-10T10:58:47.666Z,15.95
2023-04-10T11:01:14.856Z,16.06
2023-04-10T11:03:41.919Z,16.14
2023-04-10T11:06:09.940Z,16.12
2023-04-10T11:08:44.045Z,16.10
2023-04-10T11:11:16.113Z,16.20
2023-04-10T11:13:57.639Z,16.20
2023-04-10T11:16:43.913Z,16.23
2023-04-10T11:19:15.904Z,16.28
2023-04-10T11:22:07.388Z,16.35
2023-04-10T11:24:53.606Z,16.38
2023-04-10T11:27:45.034Z,16.41
2023-04-10T11:30:34.724Z,16.36
2023-04-10T11:33:03.595Z,16.34
2023-04-10T11:35:31.799Z,16.40
2023-04-10T11:38:16.176Z,16.40
2023-04-10T11:41:04.719Z,16.47
2023-04-10T11:43:32.393Z,16.59
2023-04-10T11:46:00.646Z,16.77
2023-04-10T11:48:29.275Z,16.72
2023-04-10T11:50:55.958Z,16.80
2023-04-10T11:53:22.773Z,16.98
2023-04-10T11:55:49.307Z,17.02
2023-04-10T11:58:30.668Z,17.03
2023-04-10T12:00:57.288Z,17.16
2023-04-10T12:03:41.749Z,17.27
2023-04-10T12:06:13.730Z,17.26
2023-04-10T12:08:45.250Z,17.28
2023-04-10T12:11:12.996Z,17.26
2023-04-10T12:13:39.960Z,17.15
2023-04-10T12:16:08.131Z,17.21
2023-04-10T12:18:34.767Z,17.29
2023-04-10T12:21:01.917Z,17.18
2023-04-10T12:23:29.824Z,17.19
2023-04-10T12:26:16.676Z,17.17
2023-04-10T12:28:52.520Z,17.12
2023-04-10T12:31:28.135Z,17.26
2023-04-10T12:33:57.771Z,17.33
2023-04-10T12:36:29.829Z,17.25
2023-04-10T12:38:58.186Z,17.19
2023-04-10T12:41:35.550Z,17.11
2023-04-10T12:44:13.655Z,16.94
2023-04-10T12:46:42.219Z,16.85
2023-04-10T12:49:27.003Z,16.78
2023-04-10T12:51:53.625Z,16.59
2023-04-10T12:54:31.955Z,16.47
2023-04-10T12:56:59.365Z,16.42
2023-04-10T12:59:26.619Z,16.34
2023-04-10T13:01:53.985Z,16.26
2023-04-10T13:04:21.067Z,16.22
2023-04-10T13:06:48.670Z,16.19
2023-04-10T13:09:15.916Z,16.19
2023-04-10T13:11:42.591Z,16.19
2023-04-10T13:14:09.353Z,16.16
2023-04-10T13:16:35.997Z,16.13
2023-04-10T13:19:02.857Z,16.12
2023-04-10T13:21:29.771Z,16.09
2023-04-10T13:23:56.553Z,16.14
2023-04-10T13:26:24.055Z,16.14
2023-04-10T13:28:50.785Z,16.11
2023-04-10T13:31:17.299Z,16.10
2023-04-10T13:33:48.096Z,16.03
2023-04-10T13:36:15.575Z,15.99
2023-04-10T13:38:42.548Z,15.94
2023-04-10T13:41:09.223Z,15.94
2023-04-10T13:43:36.727Z,15.92
2023-04-10T13:46:03.300Z,15.86
2023-04-10T13:48:37.542Z,15.83
2023-04-10T13:51:06.762Z,15.86
2023-04-10T13:53:33.217Z,15.89
2023-04-10T13:55:59.827Z,15.89
2023-04-10T13:58:28.569Z,15.92
2023-04-10T14:00:55.109Z,15.94
2023-04-10T14:03:21.679Z,15.94
2023-04-10T14:05:48.399Z,15.94
2023-04-10T14:08:15.869Z,15.91
2023-04-10T14:10:42.362Z,15.88
2023-04-10T14:13:09.382Z,15.83
2023-04-10T14:15:35.921Z,15.79
2023-04-10T14:18:02.592Z,15.74
2023-04-10T14:20:29.211Z,15.60
2023-04-10T14:22:55.705Z,15.45
2023-04-10T14:25:22.151Z,15.25
2023-04-10T14:27:48.614Z,15.11
2023-04-10T14:30:15.131Z,14.98
2023-04-10T14:32:41.978Z,14.86
2023-04-10T14:35:09.211Z,14.77
2023-04-10T14:37:35.944Z,14.60
2023-04-10T14:40:04.876Z,14.53
2023-04-10T14:42:31.420Z,14.48
2023-04-10T14:45:00.658Z,14.41
2023-04-10T14:47:27.267Z,14.35
2023-04-10T14:49:53.808Z,14.30
2023-04-10T14:52:20.370Z,14.25
2023-04-10T14:54:46.867Z,14.16
2023-04-10T14:57:15.159Z,14.08
2023-04-10T14:59:42.098Z,14.02
2023-04-10T15:02:08.671Z,13.92
2023-04-10T15:04:36.061Z,13.80
2023-04-10T15:07:03.243Z,13.71
2023-04-10T15:09:29.756Z,13.65
2023-04-10T15:11:56.894Z,13.51
2023-04-10T15:14:23.391Z,13.45
2023-04-10T15:16:50.945Z,13.32
2023-04-10T15:19:19.179Z,13.16
2023-04-10T15:21:45.842Z,13.05
2023-04-10T15:24:12.320Z,12.97
2023-04-10T15:26:45.042Z,12.86
2023-04-10T15:29:12.444Z,12.84
2023-04-10T15:31:39.244Z,12.79
2023-04-10T15:34:05.813Z,12.81
2023-04-10T15:36:32.571Z,12.81
2023-04-10T15:39:03.738Z,12.81
2023-04-10T15:41:33.180Z,12.80
2023-04-10T15:43:59.794Z,12.81
2023-04-10T15:46:27.025Z,12.79
2023-04-10T15:48:53.629Z,12.81
2023-04-10T15:51:20.360Z,12.80
2023-04-10T15:53:46.842Z,12.80
2023-04-10T15:56:15.937Z,12.80
2023-04-10T15:58:42.466Z,12.78
2023-04-10T16:01:08.939Z,12.75
2023-04-10T16:03:35.994Z,12.73
2023-04-10T16:06:02.792Z,12.67
2023-04-10T16:08:29.247Z,12.63
2023-04-10T16:10:56.298Z,12.55
2023-04-10T16:13:22.846Z,12.50
2023-04-10T16:15:50.222Z,12.41
2023-04-10T16:18:16.795Z,12.33
2023-04-10T16:20:43.345Z,12.26
2023-04-10T16:23:10.156Z,12.18
2023-04-10T16:25:36.720Z,12.13
2023-04-10T16:28:06.872Z,12.10
2023-04-10T16:30:36.529Z,12.08
2023-04-10T16:33:04.301Z,12.07
2023-04-10T16:35:31.087Z,12.03
2023-04-10T16:37:57.761Z,12.00
2023-04-10T16:40:27.628Z,11.96
2023-04-10T16:42:54.113Z,11.94
2023-04-10T16:45:20.644Z,11.90
2023-04-10T16:47:47.268Z,11.84
2023-04-10T16:50:13.861Z,11.79
2023-04-10T16:52:40.418Z,11.76
2023-04-10T16:55:07.338Z,11.73
2023-04-10T16:57:33.859Z,11.70
2023-04-10T17:00:00.752Z,11.66
2023-04-10T17:02:28.413Z,11.62
2023-04-10T17:04:55.767Z,11.56
2023-04-10T17:07:23.161Z,11.52
2023-04-10T17:09:49.716Z,11.46
2023-04-10T17:12:16.377Z,11.42
2023-04-10T17:14:42.982Z,11.36
2023-04-10T17:17:09.587Z,11.35
2023-04-10T17:19:36.101Z,11.31
2023-04-10T17:22:02.846Z,11.29
2023-04-10T17:24:31.463Z,11.26
2023-04-10T17:26:58.260Z,11.22
2023-04-10T17:29:25.754Z,11.20
2023-04-10T17:31:52.304Z,11.18
2023-04-10T17:34:18.801Z,11.16
2023-04-10T17:36:45.246Z,11.17
2023-04-10T17:39:11.711Z,11.13
2023-04-10T17:41:38.185Z,11.13
2023-04-10T17:44:05.529Z,11.14
2023-04-10T17:46:32.025Z,11.15
2023-04-10T17:49:01.495Z,11.17
2023-04-10T17:51:28.344Z,11.17
2023-04-10T17:53:57.692Z,11.16
2023-04-10T17:56:24.157Z,11.19
2023-04-10T17:58:53.097Z,11.19
2023-04-10T18:01:25.731Z,11.16
2023-04-10T18:03:52.380Z,11.17
2023-04-10T18:06:19.411Z,11.16
2023-04-10T18:08:46.017Z,11.18
2023-04-10T18:11:12.527Z,11.22
2023-04-10T18:13:38.987Z,11.22
2023-04-10T18:16:05.957Z,11.19
2023-04-10T18:18:34.433Z,11.15
2023-04-10T18:21:08.661Z,11.11
2023-04-10T18:23:35.355Z,11.08
2023-04-10T18:26:03.006Z,11.05
2023-04-10T18:28:29.882Z,11.05
2023-04-10T18:30:59.567Z,11.04
2023-04-10T18:33:26.524Z,11.02
2023-04-10T18:35:57.091Z,11.02
2023-04-10T18:38:27.169Z,11.01
2023-04-10T18:40:57.623Z,10.97
2023-04-10T18:43:27.856Z,10.96
2023-04-10T18:45:55.178Z,10.94
2023-04-10T18:48:21.904Z,10.96
2023-04-10T18:50:52.224Z,10.94
2023-04-10T18:53:19.225Z,10.97
2023-04-10T18:55:52.755Z,10.98
2023-04-10T18:58:21.242Z,11.00
2023-04-10T19:00:48.382Z,10.98
2023-04-10T19:03:14.967Z,11.00
2023-04-10T19:05:42.391Z,10.98
2023-04-10T19:08:08.960Z,10.98
2023-04-10T19:10:37.551Z,10.98
2023-04-10T19:13:04.003Z,10.98
2023-04-10T19:15:30.620Z,10.99
2023-04-10T19:17:57.215Z,10.97
2023-04-10T19:20:50.585Z,10.97
2023-04-10T19:23:11.157Z,10.97
2023-04-10T19:25:37.685Z,10.96
2023-04-10T19:28:04.823Z,10.96
2023-04-10T19:30:31.885Z,10.93
2023-04-10T19:32:58.591Z,10.88
2023-04-10T19:35:25.175Z,10.84
2023-04-10T19:37:51.629Z,10.82
2023-04-10T19:40:19.284Z,10.81
2023-04-10T19:42:45.977Z,10.77
2023-04-10T19:45:12.798Z,10.77
2023-04-10T19:47:39.492Z,10.76
2023-04-10T19:50:06.547Z,10.72
2023-04-10T19:52:32.998Z,10.67
2023-04-10T19:54:59.537Z,10.67
2023-04-10T19:57:26.037Z,10.67
2023-04-10T19:59:52.584Z,10.69
2023-04-10T20:02:19.190Z,10.70
2023-04-10T20:04:48.539Z,10.67
2023-04-10T20:07:15.372Z,10.68
2023-04-10T20:09:41.908Z,10.69
2023-04-10T20:12:09.182Z,10.69
2023-04-10T20:14:35.635Z,10.72
2023-04-10T20:17:02.134Z,10.73
2023-04-10T20:19:28.600Z,10.74
2023-04-10T20:21:55.279Z,10.74
2023-04-10T20:24:21.752Z,10.76
2023-04-10T20:26:48.265Z,10.75
2023-04-10T20:29:14.734Z,10.72
2023-04-10T20:31:41.367Z,10.75
2023-04-10T20:34:07.814Z,10.75
2023-04-10T20:36:34.986Z,10.73
2023-04-10T20:39:01.463Z,10.72
2023-04-10T20:41:28.394Z,10.69
2023-04-10T20:43:55.859Z,10.68
2023-04-10T20:46:22.563Z,10.63
2023-04-10T20:48:49.100Z,10.62
2023-04-10T20:51:15.558Z,10.60
2023-04-10T20:53:41.991Z,10.56
2023-04-10T20:56:08.844Z,10.51
2023-04-10T20:58:35.302Z,10.43
2023-04-10T21:01:01.934Z,10.38
2023-04-10T21:03:29.710Z,10.33
2023-04-10T21:05:56.436Z,10.31
2023-04-10T21:08:22.952Z,10.29
2023-04-10T21:10:49.524Z,10.25
2023-04-10T21:13:16.110Z,10.22
2023-04-10T21:15:43.007Z,10.23
2023-04-10T21:18:09.793Z,10.26
2023-04-10T21:20:36.795Z,10.27
2023-04-10T21:23:03.274Z,10.28
2023-04-10T21:25:31.840Z,10.29
2023-04-10T21:27:58.371Z,10.30
2023-04-10T21:30:24.833Z,10.30
2023-04-10T21:32:51.454Z,10.34
2023-04-10T21:35:18.179Z,10.35
2023-04-10T21:37:44.690Z,10.35
2023-04-10T21:40:11.390Z,10.37
2023-04-10T21:42:38.838Z,10.37
2023-04-10T21:45:06.474Z,10.37
2023-04-10T21:47:32.949Z,10.39
2023-04-10T21:49:59.391Z,10.36
2023-04-10T21:52:25.859Z,10.36
2023-04-10T21:54:52.348Z,10.36
2023-04-10T21:57:18.780Z,10.35
2023-04-10T21:59:45.275Z,10.35
2023-04-10T22:02:12.801Z,10.37
2023-04-10T22:04:47.956Z,10.36
2023-04-10T22:07:21.057Z,10.38
2023-04-10T22:09:47.575Z,10.37
2023-04-10T22:12:14.161Z,10.37
2023-04-10T22:14:41.304Z,10.37
2023-04-10T22:17:07.995Z,10.37
2023-04-10T22:19:34.590Z,10.34
2023-04-10T22:22:01.027Z,10.34
2023-04-10T22:24:27.517Z,10.37
2023-04-10T22:26:53.992Z,10.38
2023-04-10T22:29:20.453Z,10.36
2023-04-10T22:31:46.916Z,10.35
2023-04-10T22:34:13.427Z,9.86
2023-04-10T22:36:40.100Z,9.55
2023-04-10T22:39:06.562Z,9.33
2023-04-10T22:41:33.070Z,9.19
2023-04-10T22:43:59.865Z,9.08
2023-04-10T22:46:26.388Z,8.98
2023-04-10T22:48:54.809Z,8.89
2023-04-10T22:51:21.388Z,8.82
2023-04-10T22:53:47.830Z,8.77
2023-04-10T22:56:14.445Z,8.74
2023-04-10T22:58:41.089Z,8.64
2023-04-10T23:01:08.318Z,8.57
2023-04-10T23:03:35.472Z,8.52
2023-04-10T23:06:02.451Z,8.48
2023-04-10T23:08:28.999Z,8.43
2023-04-10T23:10:55.741Z,8.36
2023-04-10T23:13:22.533Z,8.28
2023-04-10T23:15:53.780Z,8.27
2023-04-10T23:18:20.591Z,8.21
2023-04-10T23:20:47.994Z,8.13
2023-04-10T23:23:15.519Z,8.05
2023-04-10T23:25:42.491Z,7.99
2023-04-10T23:28:08.986Z,7.94
2023-04-10T23:30:39.149Z,7.88
2023-04-10T23:33:05.670Z,7.81
2023-04-10T23:35:32.302Z,7.80
2023-04-10T23:37:58.762Z,7.76
2023-04-10T23:40:25.319Z,7.75
2023-04-10T23:42:51.757Z,7.77
2023-04-10T23:45:18.303Z,7.82
2023-04-10T23:47:44.758Z,8.04
2023-04-10T23:50:11.374Z,8.13
2023-04-10T23:52:37.817Z,8.22
2023-04-10T23:55:04.742Z,8.34
2023-04-10T23:57:31.234Z,8.41
2023-04-10T23:59:57.682Z,8.48
